Time;durP1;ratioP1;P1;durP2;ratioP2;P2;SDS_P1;SDS_P2;PMS_P1;PMS_P2;Temp;Humidity;BMP_temperature;BMP_pressure;BME280_temperature;BME280_humidity;BME280_pressure;Samples;Min_cycle;Max_cycle;Signal;HPM_P1;HPM_P2
2022/04/28 00:00:24;;;;;;;22.35;13.68;;;;;;;7.82;75.28;97059.84;5044053;28;20056;-74
2022/04/28 00:02:51;;;;;;;19.27;13.70;;;;;;;7.79;76.02;97055.00;5044716;28;20041;-74
2022/04/28 00:05:19;;;;;;;21.75;13.85;;;;;;;7.78;76.16;97047.97;5044132;28;20049;-74
2022/04/28 00:07:46;;;;;;;20.33;14.00;;;;;;;7.78;75.49;97058.81;5044961;28;20048;-74
2022/04/28 00:10:13;;;;;;;24.80;14.52;;;;;;;7.76;75.50;97050.13;5044006;28;20049;-74
2022/04/28 00:12:40;;;;;;;19.85;14.05;;;;;;;7.76;75.50;97050.13;5043978;28;20045;-74
2022/04/28 00:15:07;;;;;;;20.98;13.98;;;;;;;7.72;75.42;97062.63;5043343;28;20052;-75
2022/04/28 00:17:34;;;;;;;22.90;15.32;;;;;;;7.70;75.75;97056.69;5045467;28;20514;-74
2022/04/28 00:20:01;;;;;;;25.60;13.85;;;;;;;7.70;75.52;97056.69;5048993;28;20061;-74
2022/04/28 00:22:30;;;;;;;21.48;14.45;;;;;;;7.66;76.05;97061.03;5047180;28;20086;-74
2022/04/28 00:24:56;;;;;;;20.13;13.75;;;;;;;7.65;76.13;97064.84;5048947;28;20053;-74
2022/04/28 00:27:23;;;;;;;20.50;14.32;;;;;;;7.64;75.78;97057.81;5047304;28;20072;-76
2022/04/28 00:29:49;;;;;;;21.60;14.23;;;;;;;7.62;75.75;97054.56;5048138;28;20049;-75
2022/04/28 00:32:16;;;;;;;20.35;13.20;;;;;;;7.58;75.57;97060.56;5047011;28;20052;-75
2022/04/28 00:34:42;;;;;;;15.32;10.48;;;;;;;7.54;74.92;97047.84;5048091;28;20049;-75
2022/04/28 00:37:09;;;;;;;16.30;10.50;;;;;;;7.47;74.42;97048.16;5047292;28;20056;-74
2022/04/28 00:39:38;;;;;;;19.38;12.07;;;;;;;7.42;73.82;97045.47;5047542;28;20098;-74
2022/04/28 00:42:09;;;;;;;19.45;13.13;;;;;;;7.39;74.25;97056.88;5047164;28;20137;-74
2022/04/28 00:44:36;;;;;;;19.65;12.80;;;;;;;7.34;74.56;97051.47;5047128;28;20411;-74
2022/04/28 00:47:02;;;;;;;18.70;12.95;;;;;;;7.31;74.70;97044.75;5047911;28;20049;-74
2022/04/28 00:52:13;;;;;;;21.85;13.48;;;;;;;7.28;74.96;97048.00;5046525;28;20060;-75
2022/04/28 00:54:42;;;;;;;20.08;13.32;;;;;;;7.25;74.88;97045.84;5047860;28;20064;-74
2022/04/28 00:57:10;;;;;;;18.92;13.07;;;;;;;7.21;74.94;97044.00;5045260;28;20056;-74
2022/04/28 00:59:39;;;;;;;21.83;14.13;;;;;;;7.18;75.26;97044.53;5047899;28;20044;-74
2022/04/28 01:02:06;;;;;;;24.35;13.25;;;;;;;7.15;75.62;97047.78;5045782;28;20519;-74
2022/04/28 01:04:33;;;;;;;21.42;13.73;;;;;;;7.11;76.16;97046.75;5047806;28;20045;-75
2022/04/28 01:07:00;;;;;;;20.35;13.13;;;;;;;7.10;75.64;97042.41;5046856;28;20131;-74
2022/04/28 01:09:26;;;;;;;16.83;11.63;;;;;;;7.06;74.93;97037.56;5047342;28;20051;-75
2022/04/28 01:11:54;;;;;;;16.42;11.52;;;;;;;7.02;75.29;97036.47;5046765;28;20040;-74
2022/04/28 01:14:21;;;;;;;19.73;12.70;;;;;;;7.01;75.55;97036.78;5046993;28;20053;-75
2022/04/28 01:16:47;;;;;;;18.23;13.07;;;;;;;7.00;75.25;97035.16;5047223;28;20053;-75
2022/04/28 01:19:14;;;;;;;20.52;13.07;;;;;;;6.99;75.69;97036.22;5046780;28;20040;-74
2022/04/28 01:21:42;;;;;;;20.27;13.45;;;;;;;6.98;75.41;97034.59;5047067;28;20052;-74
2022/04/28 01:24:08;;;;;;;20.60;13.82;;;;;;;6.95;75.52;97033.28;5046596;28;20454;-74
2022/04/28 01:26:36;;;;;;;20.08;12.50;;;;;;;6.95;75.53;97037.88;5047548;28;20056;-74
2022/04/28 01:29:02;;;;;;;15.82;10.00;;;;;;;6.91;75.40;97051.16;5044916;28;20514;-74
2022/04/28 01:31:29;;;;;;;17.75;11.48;;;;;;;6.88;74.83;97040.88;5045656;28;20052;-74
2022/04/28 01:33:55;;;;;;;15.02;9.50;;;;;;;6.83;74.51;97043.59;5046483;28;20519;-75
2022/04/28 01:36:22;;;;;;;21.02;11.68;;;;;;;6.79;74.75;97037.94;5046812;28;20053;-74
2022/04/28 01:38:50;;;;;;;19.58;13.27;;;;;;;6.79;75.11;97037.16;5046444;28;20045;-74
2022/04/28 01:41:16;;;;;;;23.77;14.25;;;;;;;6.76;75.90;97038.50;5046212;28;20056;-75
2022/04/28 01:43:43;;;;;;;23.25;14.30;;;;;;;6.77;76.58;97042.00;5046542;28;20045;-74
2022/04/28 01:46:09;;;;;;;21.98;14.27;;;;;;;6.78;77.22;97040.91;5046218;28;20052;-75
2022/04/28 01:48:36;;;;;;;23.45;14.27;;;;;;;6.80;77.50;97036.84;5046729;28;20514;-75
2022/04/28 01:56:32;;;;;;;23.92;14.45;;;;;;;6.82;76.98;97035.75;5045578;28;20569;-74
2022/04/28 01:58:58;;;;;;;24.23;14.35;;;;;;;6.83;77.16;97042.78;5046362;28;20044;-74
2022/04/28 02:01:25;;;;;;;23.33;13.77;;;;;;;6.82;77.05;97036.56;5045686;28;20439;-74
2022/04/28 02:03:51;;;;;;;22.67;14.63;;;;;;;6.81;77.19;97040.38;5046317;28;20044;-74
2022/04/28 02:06:18;;;;;;;22.88;14.73;;;;;;;6.79;77.30;97031.72;5045746;28;20794;-75
2022/04/28 02:08:46;;;;;;;23.80;14.25;;;;;;;6.80;77.42;97033.34;5045541;28;20048;-75
2022/04/28 02:11:13;;;;;;;23.33;14.32;;;;;;;6.80;77.23;97027.94;5045934;28;20582;-74
2022/04/28 02:13:41;;;;;;;22.27;14.57;;;;;;;6.77;76.72;97028.47;5045566;28;20053;-74
2022/04/28 02:16:08;;;;;;;21.00;14.23;;;;;;;6.75;76.78;97036.06;5046388;28;20058;-73
2022/04/28 02:18:35;;;;;;;22.70;13.90;;;;;;;6.73;76.80;97032.81;5045653;28;20408;-74
2022/04/28 02:21:01;;;;;;;21.80;13.30;;;;;;;6.71;76.48;97035.00;5046558;28;20079;-74
2022/04/28 02:23:28;;;;;;;22.45;14.23;;;;;;;6.67;76.16;97039.34;5046105;28;20095;-74
2022/04/28 02:25:54;;;;;;;21.70;13.73;;;;;;;6.64;75.83;97032.59;5045801;28;20463;-74
2022/04/28 02:28:21;;;;;;;19.58;12.98;;;;;;;6.60;76.02;97036.13;5045212;28;20044;-75
2022/04/28 02:30:48;;;;;;;21.60;14.13;;;;;;;6.54;76.15;97044.25;5045430;28;20048;-74
2022/04/28 02:33:17;;;;;;;21.40;13.05;;;;;;;6.53;76.59;97039.94;5045077;28;20412;-74
2022/04/28 02:35:44;;;;;;;21.20;13.50;;;;;;;6.51;76.17;97047.50;5045297;28;20680;-74
2022/04/28 02:38:10;;;;;;;18.60;12.38;;;;;;;6.47;76.17;97051.84;5045899;28;20053;-74
2022/04/28 02:40:37;;;;;;;20.30;12.70;;;;;;;6.44;75.99;97044.28;5044363;28;20464;-74
2022/04/28 02:43:03;;;;;;;23.02;13.52;;;;;;;6.40;76.13;97040.50;5045410;28;20053;-74
2022/04/28 02:45:30;;;;;;;20.85;13.13;;;;;;;6.40;76.37;97050.50;5045368;28;20094;-75
2022/04/28 02:47:59;;;;;;;20.77;13.02;;;;;;;6.37;76.23;97041.06;5045707;28;20065;-74
2022/04/28 02:50:25;;;;;;;23.58;12.95;;;;;;;6.35;76.13;97042.41;5045158;28;20055;-74
2022/04/28 02:52:52;;;;;;;23.48;13.82;;;;;;;6.34;76.17;97036.19;5045166;28;20044;-75
2022/04/28 02:55:18;;;;;;;22.52;13.77;;;;;;;6.32;76.09;97042.94;5045524;28;20053;-74
2022/04/28 02:57:45;;;;;;;23.35;15.05;;;;;;;6.31;76.12;97044.03;5045302;28;20060;-74
2022/04/28 03:00:13;;;;;;;20.98;13.65;;;;;;;6.30;76.74;97050.53;5025565;28;20049;-74
2022/04/28 03:02:39;;;;;;;21.88;14.23;;;;;;;6.30;76.73;97043.22;5024596;28;20049;-73
2022/04/28 03:05:08;;;;;;;20.58;13.40;;;;;;;6.28;77.11;97037.28;5025495;28;20052;-74
2022/04/28 03:13:31;;;;;;;21.48;12.60;;;;;;;6.30;76.40;97050.53;5074175;28;20356;-75
2022/04/28 03:15:58;;;;;;;21.98;13.27;;;;;;;6.26;76.00;97052.97;5073793;27;20135;-75
2022/04/28 03:18:25;;;;;;;19.73;12.43;;;;;;;6.22;76.11;97051.91;5074479;27;20137;-75
2022/04/28 03:20:51;;;;;;;21.58;13.48;;;;;;;6.17;76.34;97046.50;5073870;27;20128;-75
2022/04/28 03:23:18;;;;;;;21.42;13.13;;;;;;;6.14;76.85;97057.84;5073639;27;20048;-75
2022/04/28 03:25:44;;;;;;;21.08;13.65;;;;;;;6.13;77.45;97048.13;5073948;27;20044;-75
2022/04/28 03:28:11;;;;;;;21.42;14.07;;;;;;;6.14;77.74;97047.03;5073233;27;20499;-76
2022/04/28 03:30:39;;;;;;;22.92;14.07;;;;;;;6.15;77.42;97054.06;5073920;27;20067;-75
2022/04/28 03:33:05;;;;;;;19.65;12.65;;;;;;;6.13;77.06;97053.53;5072831;28;20117;-75
2022/04/28 03:35:32;;;;;;;19.80;13.70;;;;;;;6.14;76.52;97057.84;5082804;28;20048;-75
2022/04/28 03:37:59;;;;;;;22.95;12.75;;;;;;;6.12;76.07;97055.44;5082053;28;20040;-75
2022/04/28 03:40:25;;;;;;;15.43;9.65;;;;;;;6.11;75.82;97055.69;5079049;28;20074;-75
2022/04/28 03:42:52;;;;;;;14.80;8.98;;;;;;;6.07;75.08;97062.72;5081733;28;20045;-76
2022/04/28 03:45:19;;;;;;;15.93;9.88;;;;;;;6.01;74.26;97060.03;5081335;28;20052;-75
2022/04/28 03:47:47;;;;;;;15.05;9.80;;;;;;;5.95;73.63;97066.53;5076682;28;20048;-77
2022/04/28 03:50:13;;;;;;;14.60;9.95;;;;;;;5.90;73.55;97069.19;5081310;28;20451;-75
2022/04/28 03:52:40;;;;;;;17.33;11.60;;;;;;;5.85;73.77;97069.19;5081259;28;20048;-75
2022/04/28 03:55:09;;;;;;;16.90;11.35;;;;;;;5.81;74.04;97075.41;5080670;28;20049;-75
2022/04/28 03:57:36;;;;;;;19.38;12.52;;;;;;;5.77;74.79;97077.81;5079844;28;20131;-75
2022/04/28 04:00:03;;;;;;;22.35;13.98;;;;;;;5.74;75.28;97075.66;5078750;28;20131;-75
2022/04/28 04:02:29;;;;;;;22.67;13.50;;;;;;;5.68;76.49;97076.72;5081879;28;20040;-75
2022/04/28 04:04:58;;;;;;;21.83;13.85;;;;;;;5.65;77.01;97077.28;5081466;28;20052;-75
2022/04/28 04:07:29;;;;;;;20.67;12.65;;;;;;;5.64;77.03;97083.78;5081594;28;20052;-75
2022/04/28 04:09:55;;;;;;;20.25;13.00;;;;;;;5.64;77.05;97078.38;5081220;28;20056;-75
2022/04/28 04:12:22;;;;;;;19.45;12.15;;;;;;;5.66;77.09;97081.59;5092020;28;20047;-76
2022/04/28 04:14:48;;;;;;;18.92;11.77;;;;;;;5.66;76.71;97085.13;5101778;28;20043;-76
2022/04/28 04:17:15;;;;;;;18.65;11.20;;;;;;;5.65;76.45;97093.50;5099619;28;20078;-76
2022/04/28 04:19:42;;;;;;;18.58;12.52;;;;;;;5.60;76.24;97096.19;5101860;28;20043;-75
2022/04/28 04:22:09;;;;;;;17.17;11.35;;;;;;;5.59;76.09;97100.78;5100360;28;20855;-75
2022/04/28 04:24:36;;;;;;;18.60;12.05;;;;;;;5.59;76.19;97097.28;5090034;28;20101;-75
2022/04/28 04:27:03;;;;;;;24.10;12.40;;;;;;;5.59;76.39;97094.56;5087180;28;20040;-75
2022/04/28 04:29:30;;;;;;;21.75;12.73;;;;;;;5.60;76.60;97101.59;5087918;28;20047;-75
2022/04/28 04:34:40;;;;;;;20.88;12.45;;;;;;;5.61;76.76;97108.63;5087359;28;20550;-75
2022/04/28 04:37:07;;;;;;;19.60;12.48;;;;;;;5.60;76.97;97101.59;5087064;28;20075;-74
2022/04/28 04:39:35;;;;;;;20.73;12.82;;;;;;;5.62;77.23;97110.22;5087585;28;20043;-75
2022/04/28 04:42:01;;;;;;;22.38;13.10;;;;;;;5.67;77.41;97110.25;5087811;28;20048;-75
2022/04/28 04:44:28;;;;;;;23.27;12.18;;;;;;;5.70;77.45;97107.03;5086851;28;20395;-75
2022/04/28 04:46:54;;;;;;;21.55;12.38;;;;;;;5.72;77.41;97110.25;5087654;28;20044;-75
2022/04/28 04:49:21;;;;;;;16.98;11.30;;;;;;;5.74;77.86;97108.91;5086226;28;20037;-75
2022/04/28 04:51:47;;;;;;;11.95;8.65;;;;;;;5.74;77.62;97114.31;5087011;28;20051;-75
2022/04/28 04:54:14;;;;;;;11.75;8.77;;;;;;;5.71;77.38;97114.03;5086866;28;20043;-75
2022/04/28 04:56:41;;;;;;;13.10;9.23;;;;;;;5.68;77.49;97115.38;5087635;28;20047;-75
2022/04/28 04:59:08;;;;;;;12.02;8.52;;;;;;;5.68;77.35;97119.97;5086970;28;20104;-75
2022/04/28 05:01:34;;;;;;;13.68;9.55;;;;;;;5.70;77.38;97125.94;5087103;28;20048;-75
2022/04/28 05:04:01;;;;;;;15.63;9.98;;;;;;;5.73;77.72;97131.59;5087416;28;20051;-75
2022/04/28 05:06:28;;;;;;;18.52;11.35;;;;;;;5.78;78.00;97130.78;5086467;28;20043;-75
2022/04/28 05:08:54;;;;;;;19.42;12.35;;;;;;;5.84;78.26;97124.31;5087711;28;20051;-75
2022/04/28 05:11:21;;;;;;;19.63;13.35;;;;;;;5.85;78.37;97136.78;5084302;28;20468;-75
2022/04/28 05:13:49;;;;;;;23.10;14.13;;;;;;;5.86;78.57;97138.38;5087106;28;20043;-75
2022/04/28 05:16:15;;;;;;;21.73;14.23;;;;;;;5.86;78.77;97142.97;5086241;28;20051;-74
2022/04/28 05:18:42;;;;;;;22.35;14.90;;;;;;;5.86;79.08;97143.78;5086931;28;20055;-75
2022/04/28 05:21:08;;;;;;;25.20;15.80;;;;;;;5.90;79.22;97144.88;5086270;28;20055;-75
2022/04/28 05:23:35;;;;;;;24.30;16.25;;;;;;;5.95;79.61;97147.63;5086715;28;20398;-75
2022/04/28 05:26:01;;;;;;;24.70;15.15;;;;;;;5.99;80.18;97154.09;5086292;28;20043;-75
2022/04/28 05:28:28;;;;;;;25.63;16.52;;;;;;;6.06;80.63;97153.03;5085775;28;20047;-75
2022/04/28 05:30:56;;;;;;;26.27;16.10;;;;;;;6.13;80.76;97148.97;5086539;28;20071;-75
2022/04/28 05:33:23;;;;;;;31.17;18.02;;;;;;;6.19;81.40;97147.09;5085456;28;20456;-75
2022/04/28 05:35:50;;;;;;;26.98;17.52;;;;;;;6.29;81.72;97152.50;5086375;28;20044;-75
2022/04/28 05:38:16;;;;;;;29.15;17.35;;;;;;;6.39;82.03;97152.50;5085893;28;20044;-74
2022/04/28 05:40:43;;;;;;;29.02;17.75;;;;;;;6.46;81.99;97155.72;5087112;28;20564;-74
2022/04/28 05:45:57;;;;;;;26.70;17.33;;;;;;;6.62;82.57;97166.53;5086702;28;20114;-75
2022/04/28 05:48:24;;;;;;;25.55;16.23;;;;;;;6.70;82.65;97166.81;5085341;28;20051;-75
2022/04/28 05:50:50;;;;;;;27.23;15.18;;;;;;;6.80;82.61;97169.50;5086269;28;20051;-76
2022/04/28 05:53:17;;;;;;;23.85;15.32;;;;;;;6.88;82.78;97164.59;5086094;28;20429;-75
2022/04/28 05:55:43;;;;;;;26.55;16.23;;;;;;;6.98;82.67;97159.97;5084901;28;20055;-75
2022/04/28 05:58:10;;;;;;;28.75;17.38;;;;;;;7.08;82.81;97164.56;5086250;28;20489;-74
2022/04/28 06:00:36;;;;;;;27.23;18.35;;;;;;;7.24;83.08;97165.31;5086034;28;20044;-73
2022/04/28 06:03:04;;;;;;;26.00;17.63;;;;;;;7.39;83.12;97170.66;5086088;28;20076;-74
2022/04/28 06:05:31;;;;;;;35.60;19.60;;;;;;;7.49;83.40;97169.81;5085967;28;20071;-73
2022/04/28 06:07:57;;;;;;;33.33;19.35;;;;;;;7.66;83.33;97174.88;5086350;28;20059;-73
2022/04/28 06:10:24;;;;;;;29.48;19.55;;;;;;;7.76;83.17;97181.06;5085656;28;20489;-73
2022/04/28 06:12:51;;;;;;;27.27;17.35;;;;;;;7.84;83.14;97179.69;5085692;28;20044;-73
2022/04/28 06:15:17;;;;;;;27.38;17.83;;;;;;;7.97;82.88;97181.75;5085473;28;20612;-73
2022/04/28 06:17:44;;;;;;;28.80;16.88;;;;;;;8.15;82.38;97182.22;5086417;28;20051;-73
2022/04/28 06:20:12;;;;;;;25.73;16.65;;;;;;;8.26;81.53;97189.19;5086317;28;20054;-75
2022/04/28 06:22:39;;;;;;;26.23;18.00;;;;;;;8.28;81.47;97184.25;5085414;28;20056;-74
2022/04/28 06:25:06;;;;;;;24.75;16.90;;;;;;;8.38;81.37;97188.84;5086281;28;20044;-75
2022/04/28 06:27:34;;;;;;;26.10;16.58;;;;;;;8.51;81.13;97193.59;5085360;28;20066;-75
2022/04/28 06:30:01;;;;;;;25.58;16.92;;;;;;;8.59;80.47;97193.00;5086138;28;20052;-75
2022/04/28 06:32:27;;;;;;;22.45;15.23;;;;;;;8.69;79.72;97192.13;5085839;28;20445;-74
2022/04/28 06:34:54;;;;;;;22.15;15.90;;;;;;;8.76;79.10;97200.72;5086420;28;20047;-73
2022/04/28 06:37:22;;;;;;;21.65;14.60;;;;;;;8.88;78.21;97198.47;5085659;28;20054;-74
2022/04/28 06:39:49;;;;;;;21.50;15.02;;;;;;;8.97;78.23;97207.59;5085914;28;20056;-73
2022/04/28 06:42:15;;;;;;;22.92;14.60;;;;;;;9.04;77.67;97204.56;5078759;28;20041;-73
2022/04/28 06:44:42;;;;;;;22.10;14.18;;;;;;;9.13;77.57;97202.81;5064797;28;20178;-72
2022/04/28 06:47:09;;;;;;;20.27;14.60;;;;;;;9.23;77.52;97212.78;5075012;28;20055;-72
2022/04/28 06:49:37;;;;;;;19.92;14.65;;;;;;;9.30;77.20;97208.63;5085183;28;20454;-73
2022/04/28 06:52:04;;;;;;;20.63;14.45;;;;;;;9.36;76.86;97209.38;5085288;28;20043;-72
2022/04/28 06:54:32;;;;;;;20.65;14.25;;;;;;;9.42;76.52;97200.06;5084865;28;20044;-73
2022/04/28 06:56:59;;;;;;;19.27;13.68;;;;;;;9.47;76.07;97208.16;5085227;28;20052;-75
2022/04/28 06:59:26;;;;;;;20.00;13.02;;;;;;;9.57;75.68;97208.03;5084316;28;20105;-72
2022/04/28 07:01:53;;;;;;;21.50;13.30;;;;;;;9.72;75.82;97217.94;5084502;28;20597;-72
2022/04/28 07:04:19;;;;;;;19.88;13.43;;;;;;;9.89;75.94;97217.44;5085144;28;20043;-72
2022/04/28 07:06:46;;;;;;;17.92;13.07;;;;;;;10.08;75.88;97212.81;5084390;28;20075;-72
2022/04/28 07:09:12;;;;;;;21.05;13.73;;;;;;;10.23;75.22;97208.25;5084801;28;20040;-74
2022/04/28 07:11:40;;;;;;;16.92;12.32;;;;;;;10.39;74.55;97215.13;5084039;28;20131;-72
2022/04/28 07:14:07;;;;;;;18.05;12.75;;;;;;;10.52;74.05;97210.84;5084609;28;20051;-72
2022/04/28 07:16:33;;;;;;;17.25;12.35;;;;;;;10.60;73.29;97207.47;5083928;28;20044;-72
2022/04/28 07:19:00;;;;;;;18.42;13.48;;;;;;;10.72;72.09;97213.25;5083591;28;20048;-72
2022/04/28 07:21:27;;;;;;;16.83;11.73;;;;;;;10.86;72.02;97216.03;5083695;28;20040;-72
2022/04/28 07:23:53;;;;;;;17.17;12.82;;;;;;;10.96;70.78;97216.66;5084993;28;20075;-72
2022/04/28 07:26:20;;;;;;;17.02;12.02;;;;;;;11.06;70.77;97217.56;5084422;28;20047;-72
2022/04/28 07:28:48;;;;;;;18.23;12.38;;;;;;;11.27;69.95;97218.81;5084367;28;20399;-72
2022/04/28 07:31:14;;;;;;;14.90;10.65;;;;;;;11.48;68.52;97224.69;5084731;28;20055;-72
2022/04/28 07:33:41;;;;;;;14.25;10.90;;;;;;;11.74;68.99;97223.09;5084047;28;20036;-72
2022/04/28 07:36:07;;;;;;;15.70;11.23;;;;;;;11.97;67.30;97228.66;5084973;28;20313;-72
2022/04/28 07:38:34;;;;;;;15.45;10.55;;;;;;;12.22;66.09;97230.84;5084498;28;20055;-72
2022/04/28 07:41:02;;;;;;;14.88;10.02;;;;;;;12.68;63.75;97232.47;5085200;28;20071;-72
2022/04/28 07:43:29;;;;;;;14.65;10.05;;;;;;;14.17;59.54;97232.91;5084259;28;20695;-72
2022/04/28 07:45:57;;;;;;;11.77;8.77;;;;;;;15.53;54.06;97233.47;5082854;28;20044;-72
2022/04/28 07:48:23;;;;;;;11.75;8.63;;;;;;;16.87;51.18;97239.97;5084449;28;20040;-72
2022/04/28 07:50:50;;;;;;;10.63;8.75;;;;;;;17.84;46.92;97241.38;5084092;28;20043;-72
2022/04/28 07:53:17;;;;;;;11.10;8.80;;;;;;;18.81;45.97;97239.69;5084162;28;20125;-72
2022/04/28 07:55:43;;;;;;;10.70;8.05;;;;;;;19.67;42.87;97242.03;5084999;28;20056;-72
2022/04/28 07:58:10;;;;;;;11.80;8.43;;;;;;;20.33;41.71;97246.84;5084491;28;20406;-72
2022/04/28 08:00:37;;;;;;;9.85;8.35;;;;;;;20.73;40.35;97249.34;5087879;28;20059;-72
2022/04/28 08:03:05;;;;;;;9.63;7.50;;;;;;;21.35;38.73;97246.66;5088059;28;20044;-72
2022/04/28 08:05:32;;;;;;;8.85;7.10;;;;;;;21.80;35.88;97245.91;5087946;28;20055;-74
2022/04/28 08:07:58;;;;;;;8.82;7.13;;;;;;;21.90;36.63;97238.94;5087584;28;20154;-75
2022/04/28 08:10:25;;;;;;;10.27;8.20;;;;;;;22.12;37.16;97243.69;5087205;28;20048;-72
2022/04/28 08:12:51;;;;;;;10.23;7.85;;;;;;;22.55;34.15;97247.16;5087440;28;20406;-73
2022/04/28 08:15:18;;;;;;;10.10;7.25;;;;;;;22.98;36.24;97247.75;5086286;28;20047;-72
2022/04/28 08:17:45;;;;;;;10.07;7.85;;;;;;;23.33;32.87;97241.78;5065606;28;20086;-73
2022/04/28 08:20:13;;;;;;;8.15;7.18;;;;;;;23.65;33.25;97239.41;5067692;28;20044;-73
2022/04/28 08:22:40;;;;;;;8.63;7.00;;;;;;;23.87;30.69;97239.59;5066851;28;20044;-73
2022/04/28 08:25:08;;;;;;;8.50;6.82;;;;;;;24.00;32.44;97246.47;5067780;28;20056;-74
2022/04/28 08:27:34;;;;;;;8.98;6.28;;;;;;;24.40;31.19;97245.63;5072273;28;20049;-72
2022/04/28 08:30:01;;;;;;;6.95;6.13;;;;;;;24.51;31.29;97247.69;5067556;28;20043;-72
2022/04/28 08:32:27;;;;;;;7.75;6.07;;;;;;;24.72;33.67;97248.59;5071831;28;20920;-73
2022/04/28 08:34:54;;;;;;;11.60;6.80;;;;;;;25.01;30.11;97248.75;5086732;28;20044;-73
2022/04/28 08:37:22;;;;;;;8.27;6.55;;;;;;;24.95;29.60;97251.13;5086090;28;20056;-72
2022/04/28 08:39:48;;;;;;;7.63;6.60;;;;;;;25.04;30.50;97245.19;5086650;28;20048;-72
2022/04/28 08:42:15;;;;;;;8.93;6.28;;;;;;;24.87;30.93;97251.47;5085502;28;20098;-72
2022/04/28 08:44:44;;;;;;;6.95;6.07;;;;;;;24.43;28.63;97257.94;5085825;28;20666;-72
2022/04/28 08:47:11;;;;;;;9.70;5.93;;;;;;;24.25;29.45;97257.00;5086571;28;20055;-72
2022/04/28 08:49:38;;;;;;;7.03;5.75;;;;;;;24.03;31.83;97259.63;5087030;28;20050;-72
2022/04/28 08:52:06;;;;;;;8.77;5.72;;;;;;;23.93;30.10;97251.97;5086803;28;20044;-71
2022/04/28 08:54:36;;;;;;;9.05;6.30;;;;;;;23.58;29.60;97264.31;5087300;28;20075;-73
2022/04/28 08:57:03;;;;;;;7.28;5.60;;;;;;;23.25;31.84;97256.00;5086137;28;20153;-71
2022/04/28 08:59:30;;;;;;;9.43;5.22;;;;;;;23.06;33.57;97252.19;5086313;28;20044;-72
2022/04/28 09:01:56;;;;;;;7.35;5.43;;;;;;;22.70;29.62;97261.19;5086525;28;20055;-72
2022/04/28 09:04:23;;;;;;;8.20;5.05;;;;;;;22.14;33.09;97252.47;5087308;28;20044;-71
2022/04/28 09:06:52;;;;;;;6.30;5.07;;;;;;;21.70;30.42;97262.34;5086534;28;20040;-72
2022/04/28 09:09:20;;;;;;;8.35;5.72;;;;;;;21.27;33.35;97255.97;5087012;28;20044;-72
2022/04/28 09:11:50;;;;;;;8.63;5.97;;;;;;;20.85;32.15;97259.47;5086308;28;20044;-72
2022/04/28 09:14:20;;;;;;;7.90;6.13;;;;;;;20.28;33.28;97263.69;5086598;28;20052;-72
2022/04/28 09:16:48;;;;;;;9.40;6.10;;;;;;;20.01;36.50;97257.94;5086251;28;20067;-71
2022/04/28 09:19:17;;;;;;;7.40;5.45;;;;;;;19.83;32.79;97259.44;5085727;28;20063;-72
2022/04/28 09:21:44;;;;;;;9.73;5.90;;;;;;;19.73;33.50;97257.19;5086501;28;20054;-72
2022/04/28 09:24:11;;;;;;;7.45;5.40;;;;;;;19.67;35.93;97250.34;5085661;28;20055;-72
2022/04/28 09:26:39;;;;;;;6.53;5.45;;;;;;;19.60;34.65;97252.94;5087220;28;20050;-72
2022/04/28 09:29:12;;;;;;;8.15;6.07;;;;;;;19.55;34.47;97252.00;5085299;28;20125;-73
2022/04/28 09:31:39;;;;;;;7.95;6.03;;;;;;;19.50;33.72;97260.53;5086842;28;20060;-72
2022/04/28 09:34:08;;;;;;;9.38;6.40;;;;;;;19.32;33.47;97262.03;5085343;28;20040;-72
2022/04/28 09:36:35;;;;;;;9.55;6.30;;;;;;;19.33;34.64;97260.88;5086602;28;20071;-72
2022/04/28 09:39:01;;;;;;;8.30;5.93;;;;;;;19.27;33.28;97256.75;5086389;28;20040;-72
2022/04/28 09:44:14;;;;;;;10.68;6.22;;;;;;;19.39;34.58;97253.13;5085944;28;20424;-72
2022/04/28 09:46:42;;;;;;;8.82;6.20;;;;;;;19.47;34.83;97258.50;5086541;28;20056;-72
2022/04/28 09:49:12;;;;;;;7.40;5.80;;;;;;;19.58;32.51;97250.50;5085925;28;20044;-73
2022/04/28 09:51:40;;;;;;;8.07;5.88;;;;;;;19.48;34.00;97245.50;5085290;28;20417;-72
2022/04/28 09:54:09;;;;;;;6.03;4.78;;;;;;;19.67;35.74;97242.84;5086373;28;20079;-72
2022/04/28 09:56:37;;;;;;;8.40;6.00;;;;;;;19.51;33.20;97237.28;5084447;28;20131;-72
2022/04/28 09:59:06;;;;;;;7.20;5.10;;;;;;;19.20;34.96;97246.31;5085663;28;20044;-73
2022/04/28 10:01:34;;;;;;;6.88;5.50;;;;;;;19.35;34.56;97253.03;5085619;28;20044;-72
2022/04/28 10:04:01;;;;;;;9.25;5.70;;;;;;;19.40;33.77;97238.16;5085639;28;20494;-72
2022/04/28 10:06:34;;;;;;;7.82;5.30;;;;;;;19.19;33.42;97232.84;5085772;28;20051;-73
2022/04/28 10:09:04;;;;;;;7.97;6.30;;;;;;;18.70;33.38;97253.19;5082549;28;20551;-74
2022/04/28 10:11:31;;;;;;;9.80;5.78;;;;;;;18.24;34.79;97248.97;5085097;28;20101;-72
2022/04/28 10:13:59;;;;;;;8.32;5.18;;;;;;;18.04;35.81;97244.38;5085255;28;20051;-71
2022/04/28 10:16:26;;;;;;;6.25;5.28;;;;;;;18.02;35.96;97253.00;5085601;28;20064;-73
2022/04/28 10:19:00;;;;;;;11.70;6.20;;;;;;;17.79;34.31;97252.63;5085308;28;20506;-72
2022/04/28 10:21:32;;;;;;;10.70;6.05;;;;;;;17.97;37.38;97251.28;5084652;28;20047;-71
2022/04/28 10:32:56;;;;;;;7.97;4.70;;;;;;;17.44;35.25;97241.19;5084772;28;20083;-72
2022/04/28 10:35:36;;;;;;;7.45;4.55;;;;;;;17.87;34.87;97240.72;5084184;28;20615;-71
2022/04/28 10:38:15;;;;;;;8.65;4.22;;;;;;;17.97;34.26;97243.00;5085612;28;20051;-73
2022/04/28 10:40:44;;;;;;;7.25;4.72;;;;;;;17.81;32.49;97244.84;5084823;28;20052;-72
2022/04/28 10:43:20;;;;;;;7.47;4.93;;;;;;;17.60;33.11;97247.66;5084872;28;20510;-71
2022/04/28 10:45:49;;;;;;;7.13;5.00;;;;;;;17.52;33.83;97245.00;5084992;28;20073;-72
2022/04/28 10:48:24;;;;;;;5.65;4.10;;;;;;;17.55;34.29;97244.31;5084604;28;20052;-72
2022/04/28 10:51:03;;;;;;;6.65;4.70;;;;;;;17.89;37.36;97241.16;5084754;28;20622;-72
2022/04/28 10:53:30;;;;;;;5.85;3.53;;;;;;;18.20;31.92;97242.53;5084151;28;20036;-72
2022/04/28 10:56:05;;;;;;;6.93;4.55;;;;;;;18.42;33.41;97238.47;5085196;28;20044;-72
2022/04/28 10:58:32;;;;;;;6.90;3.50;;;;;;;18.78;31.16;97251.41;5083805;28;20147;-73
2022/04/28 11:01:00;;;;;;;5.88;3.85;;;;;;;19.11;29.32;97250.41;5083609;28;20042;-73
2022/04/28 11:03:47;;;;;;;7.03;4.20;;;;;;;19.38;28.91;97248.78;5083046;28;20044;-73
2022/04/28 11:06:16;;;;;;;7.38;4.70;;;;;;;19.43;29.94;97248.50;5083129;28;20685;-73
2022/04/28 11:08:49;;;;;;;5.97;3.75;;;;;;;19.36;31.18;97243.56;5084599;28;20039;-73
2022/04/28 11:11:16;;;;;;;5.85;4.03;;;;;;;19.41;29.60;97256.31;5083564;28;20048;-73
2022/04/28 11:13:50;;;;;;;6.45;4.32;;;;;;;19.14;31.15;97263.47;5084873;28;20516;-74
2022/04/28 11:16:19;;;;;;;7.00;4.50;;;;;;;18.94;30.75;97260.56;5084009;28;20047;-73
2022/04/28 11:18:45;;;;;;;6.47;4.50;;;;;;;19.18;31.22;97259.66;5084539;28;20123;-73
2022/04/28 11:21:12;;;;;;;5.28;4.05;;;;;;;19.15;30.07;97254.03;5083663;28;20064;-73
2022/04/28 11:23:43;;;;;;;8.82;4.30;;;;;;;19.01;29.92;97263.53;5084146;28;20661;-74
2022/04/28 11:26:10;;;;;;;6.55;4.80;;;;;;;18.67;30.56;97264.06;5083427;28;20109;-74
2022/04/28 11:28:38;;;;;;;6.05;4.40;;;;;;;18.31;31.41;97260.22;5084749;28;20047;-73
2022/04/28 11:31:09;;;;;;;6.93;5.13;;;;;;;18.08;32.41;97257.13;5084639;28;20048;-73
2022/04/28 11:33:39;;;;;;;9.48;4.95;;;;;;;17.92;33.76;97254.25;5085374;28;20094;-73
2022/04/28 11:36:18;;;;;;;7.43;4.68;;;;;;;17.96;33.02;97255.19;5088966;28;20127;-73
2022/04/28 11:38:54;;;;;;;7.32;4.82;;;;;;;18.05;33.05;97252.28;5088035;28;20040;-73
2022/04/28 11:41:32;;;;;;;9.38;4.88;;;;;;;18.37;33.24;97250.53;5086791;28;20089;-72
2022/04/28 11:44:01;;;;;;;9.23;4.22;;;;;;;18.76;34.80;97259.25;5088412;28;20075;-72
2022/04/28 11:46:27;;;;;;;6.65;4.53;;;;;;;19.01;32.68;97251.69;5087679;28;20044;-72
2022/04/28 11:48:54;;;;;;;8.45;4.85;;;;;;;19.22;31.93;97257.03;5089098;28;20044;-72
2022/04/28 11:51:23;;;;;;;8.40;4.70;;;;;;;19.21;32.17;97258.97;5087381;28;20048;-72
2022/04/28 11:53:52;;;;;;;5.78;4.53;;;;;;;19.35;33.77;97253.03;5088928;28;20055;-72
2022/04/28 11:56:21;;;;;;;7.15;4.70;;;;;;;19.13;30.59;97251.63;5087613;28;20684;-72
2022/04/28 11:58:49;;;;;;;6.10;4.40;;;;;;;18.83;31.56;97251.16;5088890;28;20573;-72